Time;durP1;ratioP1;P1;durP2;ratioP2;P2;SDS_P1;SDS_P2;PMS_P1;PMS_P2;Temp;Humidity;BMP_temperature;BMP_pressure;BME280_temperature;BME280_humidity;BME280_pressure;Samples;Min_cycle;Max_cycle;Signal;HPM_P1;HPM_P2
2022/11/26 00:01:38;;;;;;;19.98;9.27;;;;;;;5.12;100.00;101365.47;5051067;28;20226;-74
2022/11/26 00:04:05;;;;;;;18.60;8.60;;;;;;;5.07;100.00;101369.06;5048355;28;20277;-74
2022/11/26 00:06:36;;;;;;;25.10;8.40;;;;;;;5.14;100.00;101376.13;5038850;28;20257;-74
2022/11/26 00:09:03;;;;;;;17.25;8.40;;;;;;;5.15;100.00;101368.09;5048734;28;20322;-74
2022/11/26 00:11:29;;;;;;;17.88;7.72;;;;;;;5.10;100.00;101369.03;5036725;28;20212;-72
2022/11/26 00:13:56;;;;;;;15.10;8.27;;;;;;;5.09;100.00;101375.25;5057224;28;20609;-73
2022/11/26 00:16:23;;;;;;;21.40;8.65;;;;;;;5.08;100.00;101373.50;5055465;28;20221;-75
2022/11/26 00:18:49;;;;;;;19.48;8.63;;;;;;;5.16;100.00;101383.25;5054153;28;20217;-74
2022/11/26 00:21:20;;;;;;;12.75;7.78;;;;;;;5.23;100.00;101389.41;5042595;28;20205;-74
2022/11/26 00:23:48;;;;;;;17.85;8.23;;;;;;;5.32;100.00;101393.81;5046963;28;20186;-73
2022/11/26 00:26:18;;;;;;;21.90;7.15;;;;;;;5.39;100.00;101398.19;5038086;28;20667;-73
2022/11/26 00:28:50;;;;;;;16.02;8.30;;;;;;;5.52;100.00;101390.97;5051356;28;20664;-74
2022/11/26 00:31:17;;;;;;;22.00;9.27;;;;;;;5.47;100.00;101404.34;5036534;28;20205;-72
2022/11/26 00:33:44;;;;;;;13.63;7.97;;;;;;;5.47;100.00;101407.03;5041816;28;20197;-73
2022/11/26 00:36:17;;;;;;;16.60;7.55;;;;;;;5.48;100.00;101408.81;5046466;28;20264;-73
2022/11/26 00:38:44;;;;;;;16.65;9.00;;;;;;;5.47;100.00;101407.03;5030199;28;20563;-72
2022/11/26 00:41:17;;;;;;;15.88;7.85;;;;;;;5.51;100.00;101406.09;5033747;28;20199;-73
2022/11/26 00:43:44;;;;;;;17.23;8.95;;;;;;;5.58;100.00;101417.63;5050987;28;20192;-74
2022/11/26 00:46:13;;;;;;;17.50;7.22;;;;;;;5.67;100.00;101409.53;5036359;28;20586;-75
2022/11/26 00:48:39;;;;;;;20.25;8.10;;;;;;;5.61;100.00;101415.81;5048998;28;20195;-73
2022/11/26 00:51:06;;;;;;;12.38;6.78;;;;;;;5.53;100.00;101417.66;5049814;28;20202;-74
2022/11/26 00:53:33;;;;;;;19.73;7.20;;;;;;;5.51;100.00;101418.56;5044556;28;20202;-72
2022/11/26 00:55:59;;;;;;;19.55;7.97;;;;;;;5.41;100.00;101420.44;5043766;28;20291;-73
2022/11/26 00:58:29;;;;;;;22.52;7.85;;;;;;;5.39;100.00;101427.59;5044904;28;20227;-74
2022/11/26 01:00:58;;;;;;;20.88;8.45;;;;;;;5.37;100.00;101422.25;5031353;28;20204;-76
2022/11/26 01:03:25;;;;;;;14.15;6.90;;;;;;;5.35;100.00;101425.84;5036528;28;20312;-74
2022/11/26 01:05:54;;;;;;;18.13;8.02;;;;;;;5.28;100.00;101434.78;5043907;28;20291;-74
2022/11/26 01:08:30;;;;;;;15.40;8.20;;;;;;;5.22;100.00;101431.28;5041716;28;20218;-73
2022/11/26 01:10:58;;;;;;;18.73;7.43;;;;;;;5.30;100.00;101435.66;5042810;28;20199;-73
2022/11/26 01:13:25;;;;;;;15.85;7.05;;;;;;;5.33;100.00;101431.19;5034700;28;20573;-74
2022/11/26 01:15:54;;;;;;;18.33;7.22;;;;;;;5.35;100.00;101444.53;5040983;28;20214;-72
2022/11/26 01:18:21;;;;;;;13.45;6.95;;;;;;;5.34;100.00;101449.00;5041027;28;20241;-73
2022/11/26 01:20:48;;;;;;;16.70;7.22;;;;;;;5.36;100.00;101452.53;5047285;28;20200;-71
2022/11/26 01:23:16;;;;;;;13.82;6.55;;;;;;;5.32;100.00;101458.81;5031696;28;20204;-72
2022/11/26 01:25:43;;;;;;;16.92;7.13;;;;;;;5.26;100.00;101447.28;5031721;28;20201;-74
2022/11/26 01:28:11;;;;;;;13.85;6.45;;;;;;;5.23;100.00;101453.53;5031258;28;20226;-72
2022/11/26 01:30:39;;;;;;;23.48;7.85;;;;;;;5.26;100.00;101450.81;5043622;28;20285;-72
2022/11/26 01:33:07;;;;;;;18.50;7.35;;;;;;;5.19;100.00;101449.09;5045970;28;20226;-71
2022/11/26 01:35:34;;;;;;;20.42;6.68;;;;;;;5.19;100.00;101452.63;5046826;28;20243;-74
2022/11/26 01:38:01;;;;;;;16.17;7.28;;;;;;;5.18;100.00;101458.03;5046765;28;20791;-76
2022/11/26 01:40:35;;;;;;;11.93;5.97;;;;;;;5.25;100.00;101461.53;5040923;28;20198;-75
2022/11/26 01:43:06;;;;;;;16.48;6.45;;;;;;;5.22;100.00;101466.00;5039082;28;20197;-73
2022/11/26 01:45:33;;;;;;;17.60;7.95;;;;;;;5.17;100.00;101470.47;5041342;28;20675;-74
2022/11/26 01:48:00;;;;;;;19.40;7.57;;;;;;;5.29;100.00;101468.59;5041428;28;20310;-74
2022/11/26 01:50:57;;;;;;;13.88;6.47;;;;;;;5.23;100.00;101485.56;5051699;28;20205;-73
2022/11/26 01:53:32;;;;;;;16.02;6.95;;;;;;;5.14;100.00;101493.66;4974468;28;20211;-75
2022/11/26 01:56:03;;;;;;;14.43;6.43;;;;;;;5.06;100.00;101493.66;4974448;28;20195;-75
2022/11/26 01:58:34;;;;;;;18.50;7.30;;;;;;;5.01;100.00;101501.69;4973467;28;20960;-74
2022/11/26 02:01:00;;;;;;;15.65;6.57;;;;;;;4.96;100.00;101502.63;4979378;28;20225;-74
2022/11/26 02:03:29;;;;;;;13.68;6.07;;;;;;;4.90;100.00;101497.31;4976927;28;20211;-74
2022/11/26 02:06:01;;;;;;;17.13;7.25;;;;;;;4.84;100.00;101508.91;4983140;28;20908;-74
2022/11/26 02:08:31;;;;;;;12.70;6.60;;;;;;;4.93;100.00;101502.63;4984557;28;20196;-74
2022/11/26 02:10:57;;;;;;;20.85;7.55;;;;;;;4.96;100.00;101510.66;4997355;28;20201;-77
2022/11/26 02:13:25;;;;;;;16.90;7.18;;;;;;;4.92;100.00;101520.44;4987776;28;20207;-76
2022/11/26 02:16:00;;;;;;;16.98;7.78;;;;;;;4.94;100.00;101523.09;4976279;28;20212;-75
2022/11/26 02:18:33;;;;;;;18.90;7.18;;;;;;;4.87;100.00;101532.03;4975935;28;20294;-76
2022/11/26 02:21:05;;;;;;;19.10;7.35;;;;;;;4.87;100.00;101529.38;4977091;28;20205;-75
2022/11/26 02:23:59;;;;;;;17.08;6.90;;;;;;;4.95;100.00;101532.88;4976809;28;20207;-74
2022/11/26 02:26:53;;;;;;;12.55;6.38;;;;;;;5.05;100.00;101539.09;4979617;28;20231;-74
2022/11/26 02:29:26;;;;;;;16.60;8.48;;;;;;;5.12;100.00;101538.16;4997763;28;20189;-73
2022/11/26 02:32:00;;;;;;;13.27;6.93;;;;;;;5.09;100.00;101533.72;5042825;28;20194;-74
2022/11/26 02:34:34;;;;;;;17.73;6.93;;;;;;;5.17;100.00;101549.69;5047243;28;20659;-74
2022/11/26 02:37:05;;;;;;;13.65;6.93;;;;;;;5.21;100.00;101551.47;5055969;28;20223;-76
2022/11/26 02:39:32;;;;;;;18.17;6.30;;;;;;;5.23;100.00;101550.56;5050852;28;20336;-75
2022/11/26 02:42:03;;;;;;;18.13;7.63;;;;;;;5.30;100.00;101556.75;5048286;28;20199;-77
2022/11/26 02:44:33;;;;;;;21.92;7.05;;;;;;;5.32;100.00;101549.63;5034427;28;20205;-74
2022/11/26 02:47:04;;;;;;;13.38;6.78;;;;;;;5.37;100.00;101557.63;5037705;28;20221;-75
2022/11/26 02:49:33;;;;;;;18.13;7.72;;;;;;;5.36;100.00;101555.81;5034204;28;20203;-74
2022/11/26 02:52:03;;;;;;;20.23;8.45;;;;;;;5.33;100.00;101556.72;5044606;28;20207;-74
2022/11/26 02:54:31;;;;;;;14.82;6.32;;;;;;;5.34;100.00;101558.53;5038691;28;20213;-74
2022/11/26 02:56:59;;;;;;;19.42;7.05;;;;;;;5.25;100.00;101552.34;5053318;28;20214;-74
2022/11/26 02:59:25;;;;;;;14.65;6.70;;;;;;;5.12;100.00;101557.72;5041289;28;20229;-77
2022/11/26 03:01:58;;;;;;;18.48;6.25;;;;;;;5.02;100.00;101564.03;5045180;28;20210;-76
2022/11/26 03:04:31;;;;;;;17.20;7.05;;;;;;;5.05;100.00;101557.78;5038001;28;20192;-76
2022/11/26 03:07:01;;;;;;;12.30;6.45;;;;;;;5.01;100.00;101568.44;5040977;28;20780;-75
2022/11/26 03:09:39;;;;;;;24.23;7.38;;;;;;;4.90;100.00;101559.59;5045494;28;20240;-76
2022/11/26 03:12:06;;;;;;;24.38;8.95;;;;;;;4.85;100.00;101561.41;5048304;28;20207;-74
2022/11/26 03:14:33;;;;;;;20.48;7.65;;;;;;;4.81;100.00;101573.84;5047220;28;20195;-77
2022/11/26 03:16:59;;;;;;;23.17;8.52;;;;;;;4.87;100.00;101566.75;5038869;28;20224;-75
2022/11/26 03:19:27;;;;;;;22.20;8.60;;;;;;;4.82;100.00;101566.75;5044339;28;20242;-73
2022/11/26 03:21:54;;;;;;;16.33;6.85;;;;;;;4.88;100.00;101572.06;5056943;28;20202;-74
2022/11/26 03:24:20;;;;;;;15.60;7.70;;;;;;;4.80;100.00;101566.75;5066134;28;20207;-75
2022/11/26 03:26:47;;;;;;;14.40;7.35;;;;;;;4.78;100.00;101571.19;5060154;28;20602;-76
2022/11/26 03:29:13;;;;;;;15.88;8.00;;;;;;;4.79;100.00;101573.00;5053063;28;20205;-75
2022/11/26 03:31:40;;;;;;;17.90;8.60;;;;;;;4.76;100.00;101578.31;5044529;28;20220;-74
2022/11/26 03:34:06;;;;;;;20.40;8.35;;;;;;;4.68;100.00;101580.16;5027519;28;20726;-75
2022/11/26 03:36:34;;;;;;;18.70;7.00;;;;;;;4.67;100.00;101583.69;5036834;28;20683;-76
2022/11/26 03:39:01;;;;;;;20.70;8.50;;;;;;;4.71;100.00;101579.25;5041249;28;20266;-76
2022/11/26 03:41:28;;;;;;;22.70;9.43;;;;;;;4.69;100.00;101581.03;5043135;28;20284;-74
2022/11/26 03:43:54;;;;;;;17.27;8.30;;;;;;;4.70;100.00;101577.44;5047396;28;20213;-76
2022/11/26 03:46:21;;;;;;;23.25;8.70;;;;;;;4.67;100.00;101577.47;5042728;28;20309;-73
2022/11/26 03:48:47;;;;;;;13.88;7.50;;;;;;;4.69;100.00;101578.34;5048211;28;20209;-74
2022/11/26 03:51:14;;;;;;;17.42;7.80;;;;;;;4.70;100.00;101575.66;5038884;28;20198;-75
2022/11/26 03:53:42;;;;;;;17.30;8.80;;;;;;;4.68;100.00;101568.56;5040129;28;20582;-74
2022/11/26 03:56:08;;;;;;;14.85;8.50;;;;;;;4.60;100.00;101560.59;5032212;28;20679;-72
2022/11/26 03:58:35;;;;;;;16.45;8.50;;;;;;;4.59;100.00;101561.50;5031819;28;20208;-75
2022/11/26 04:01:07;;;;;;;25.55;9.15;;;;;;;4.52;100.00;101557.94;5043580;28;20228;-74
2022/11/26 04:03:34;;;;;;;24.90;9.20;;;;;;;4.49;100.00;101568.59;5044001;28;20191;-75
2022/11/26 04:06:00;;;;;;;24.08;9.30;;;;;;;4.44;100.00;101572.19;5040576;28;20203;-76
2022/11/26 04:08:27;;;;;;;23.70;8.95;;;;;;;4.41;100.00;101570.41;5031417;28;20201;-72
2022/11/26 04:10:55;;;;;;;16.95;9.68;;;;;;;4.36;100.00;101574.84;5032357;28;20247;-73
2022/11/26 04:13:21;;;;;;;22.45;9.40;;;;;;;4.33;100.00;101574.84;5032113;28;20198;-75
2022/11/26 04:15:48;;;;;;;17.98;9.10;;;;;;;4.29;100.00;101576.63;5050680;28;20204;-75
2022/11/26 04:18:15;;;;;;;20.55;8.75;;;;;;;4.46;100.00;101571.28;5041375;28;20230;-76
2022/11/26 04:20:42;;;;;;;23.13;9.90;;;;;;;4.38;100.00;101576.59;5051615;28;20227;-74
2022/11/26 04:23:08;;;;;;;19.45;9.20;;;;;;;4.43;100.00;101573.94;5048111;28;20210;-73
2022/11/26 04:25:35;;;;;;;22.60;10.77;;;;;;;4.32;100.00;101579.31;5043937;28;20630;-73
2022/11/26 04:28:03;;;;;;;16.13;10.10;;;;;;;4.34;100.00;101572.19;5047955;28;20213;-73
2022/11/26 04:30:30;;;;;;;22.05;9.60;;;;;;;4.36;100.00;101578.41;5037924;28;20202;-75
2022/11/26 04:32:56;;;;;;;19.05;8.90;;;;;;;4.38;100.00;101573.94;5032452;28;20204;-74
2022/11/26 04:35:23;;;;;;;18.15;9.38;;;;;;;4.43;100.00;101565.94;5040565;28;20201;-73
2022/11/26 04:37:49;;;;;;;21.02;10.77;;;;;;;4.49;100.00;101565.94;5041276;28;20225;-73
2022/11/26 04:40:16;;;;;;;14.88;9.35;;;;;;;4.46;100.00;101567.75;5036711;28;20218;-75
2022/11/26 04:42:43;;;;;;;21.38;9.98;;;;;;;4.42;100.00;101581.97;5034372;28;20208;-74
2022/11/26 04:45:11;;;;;;;21.77;9.23;;;;;;;4.45;100.00;101589.94;5041653;28;20221;-73
2022/11/26 04:47:38;;;;;;;19.70;9.55;;;;;;;4.46;100.00;101592.63;5052121;28;20243;-72
2022/11/26 04:50:05;;;;;;;18.80;9.98;;;;;;;4.45;100.00;101595.28;5049136;28;20283;-75
2022/11/26 04:52:32;;;;;;;16.88;10.15;;;;;;;4.33;100.00;101602.41;5047848;28;20671;-74
2022/11/26 04:54:58;;;;;;;21.38;9.93;;;;;;;4.35;100.00;101607.75;5043629;28;20201;-74
2022/11/26 04:57:25;;;;;;;15.30;8.95;;;;;;;4.36;100.00;101610.44;5038577;28;20225;-74
2022/11/26 04:59:52;;;;;;;22.33;9.60;;;;;;;4.45;100.00;101632.63;5017252;28;20225;-73
2022/11/26 05:02:19;;;;;;;22.50;10.43;;;;;;;4.52;100.00;101626.41;5012182;28;20202;-73
2022/11/26 05:04:46;;;;;;;17.30;10.75;;;;;;;4.52;100.00;101626.41;5012682;28;20203;-73
2022/11/26 05:07:13;;;;;;;20.73;11.02;;;;;;;4.47;100.00;101628.19;5021513;28;20363;-73
2022/11/26 05:09:39;;;;;;;17.15;9.93;;;;;;;4.35;100.00;101632.63;5045925;28;20206;-75
2022/11/26 05:12:06;;;;;;;16.60;9.02;;;;;;;4.31;100.00;101633.53;5049738;28;20193;-76
2022/11/26 05:14:33;;;;;;;20.10;9.85;;;;;;;4.19;100.00;101638.88;5050700;28;20629;-75
2022/11/26 05:16:59;;;;;;;19.48;9.65;;;;;;;4.08;100.00;101637.97;5064410;22;20304;-75
2022/11/26 05:19:27;;;;;;;18.58;10.95;;;;;;;4.02;100.00;101638.84;5051813;28;20211;-75
2022/11/26 05:21:54;;;;;;;22.67;10.65;;;;;;;4.11;100.00;101644.16;5038925;28;20220;-75
2022/11/26 05:24:20;;;;;;;18.48;11.32;;;;;;;4.08;100.00;101651.31;5038276;28;20212;-74
2022/11/26 05:26:47;;;;;;;26.20;11.07;;;;;;;4.11;100.00;101656.63;5049076;28;20309;-75
2022/11/26 05:29:14;;;;;;;20.77;11.52;;;;;;;4.12;100.00;101667.31;5041751;28;20254;-75
2022/11/26 05:31:40;;;;;;;18.25;11.63;;;;;;;4.04;100.00;101663.72;5041613;28;20201;-75
2022/11/26 05:34:07;;;;;;;24.25;11.80;;;;;;;3.92;100.00;101669.94;5047766;28;20580;-75
2022/11/26 05:36:35;;;;;;;24.77;10.60;;;;;;;3.82;100.00;101670.81;5040509;28;20201;-73
2022/11/26 05:39:01;;;;;;;22.65;10.55;;;;;;;3.72;100.00;101672.53;5028356;28;20236;-74
2022/11/26 05:41:28;;;;;;;28.92;13.10;;;;;;;3.78;100.00;101677.00;5026170;28;20299;-74
2022/11/26 05:43:54;;;;;;;27.80;12.13;;;;;;;3.68;100.00;101673.41;5035608;28;20480;-72
2022/11/26 05:46:21;;;;;;;18.20;10.70;;;;;;;3.66;100.00;101682.28;5051628;28;20198;-72
2022/11/26 05:48:47;;;;;;;19.23;10.77;;;;;;;3.62;100.00;101675.16;5065361;28;20221;-73
2022/11/26 05:51:14;;;;;;;26.08;12.40;;;;;;;3.64;100.00;101674.31;5048322;28;20754;-72
2022/11/26 05:53:42;;;;;;;22.40;10.82;;;;;;;3.54;100.00;101680.47;5040832;28;20206;-75
2022/11/26 05:56:08;;;;;;;20.42;11.25;;;;;;;3.57;100.00;101688.47;5035776;28;20207;-73
2022/11/26 05:58:35;;;;;;;31.95;14.20;;;;;;;3.51;100.00;101693.78;5044893;28;20297;-76
2022/11/26 06:01:07;;;;;;;21.13;11.57;;;;;;;3.48;100.00;101699.06;5032045;28;20221;-74
2022/11/26 06:03:33;;;;;;;22.95;10.82;;;;;;;3.50;100.00;101694.66;5042216;28;20228;-75
2022/11/26 06:06:00;;;;;;;24.17;12.18;;;;;;;3.42;100.00;101699.94;5036277;28;20206;-75
2022/11/26 06:08:26;;;;;;;16.00;10.20;;;;;;;3.20;100.00;101706.03;5047143;28;20245;-75
2022/11/26 06:10:54;;;;;;;25.85;11.20;;;;;;;3.15;100.00;101705.13;5063642;28;20280;-74
2022/11/26 06:13:21;;;;;;;25.52;11.85;;;;;;;3.26;100.00;101701.66;5035653;28;20195;-74
2022/11/26 06:15:47;;;;;;;22.58;11.82;;;;;;;3.12;100.00;101708.66;5042465;28;20198;-73
2022/11/26 06:18:14;;;;;;;22.45;13.35;;;;;;;3.10;100.00;101708.66;5056037;28;20225;-73
2022/11/26 06:20:40;;;;;;;38.15;16.80;;;;;;;3.07;100.00;101713.06;5051695;28;20226;-76
2022/11/26 06:23:07;;;;;;;23.63;14.13;;;;;;;3.17;100.00;101714.03;5049444;28;20210;-74
2022/11/26 06:25:33;;;;;;;22.33;11.20;;;;;;;3.19;100.00;101720.22;5053182;28;20216;-74
2022/11/26 06:28:01;;;;;;;25.13;10.80;;;;;;;3.33;100.00;101721.22;5050695;28;20301;-72
2022/11/26 06:30:28;;;;;;;23.38;10.85;;;;;;;3.22;100.00;101728.25;5051705;28;20312;-76
2022/11/26 06:32:54;;;;;;;25.50;10.70;;;;;;;3.25;100.00;101721.16;5052113;28;20230;-73
2022/11/26 06:35:21;;;;;;;29.58;12.25;;;;;;;3.25;100.00;101725.59;5050686;28;20241;-72
2022/11/26 06:37:47;;;;;;;24.40;11.57;;;;;;;3.20;100.00;101736.22;5048679;28;20889;-76
2022/11/26 06:40:17;;;;;;;16.33;10.30;;;;;;;3.30;100.00;101739.81;5042529;28;20232;-73
2022/11/26 06:42:48;;;;;;;24.48;12.10;;;;;;;3.24;100.00;101742.47;5039515;28;20193;-75
2022/11/26 06:45:17;;;;;;;23.17;10.50;;;;;;;3.31;100.00;101746.94;5049170;28;20252;-74
2022/11/26 06:47:45;;;;;;;26.42;12.35;;;;;;;3.29;100.00;101754.03;5045255;28;20237;-74
2022/11/26 06:50:11;;;;;;;31.30;10.68;;;;;;;3.27;100.00;101759.34;5053653;28;20257;-74
2022/11/26 06:52:38;;;;;;;23.88;11.25;;;;;;;3.21;100.00;101755.75;5039288;28;20683;-73
2022/11/26 06:55:06;;;;;;;33.42;12.55;;;;;;;3.27;100.00;101763.78;5045212;28;20205;-74
2022/11/26 06:57:33;;;;;;;33.15;11.88;;;;;;;3.22;100.00;101768.19;5050949;28;20250;-75
2022/11/26 06:59:59;;;;;;;21.10;11.90;;;;;;;3.28;100.00;101773.56;5041905;28;20308;-73
2022/11/26 07:02:27;;;;;;;22.58;11.55;;;;;;;3.32;100.00;101781.59;5042056;28;20216;-73
2022/11/26 07:04:54;;;;;;;24.50;12.40;;;;;;;3.31;100.00;101786.88;5043544;28;20204;-73
2022/11/26 07:07:20;;;;;;;26.23;14.57;;;;;;;3.33;100.00;101778.03;5052502;28;20221;-76
2022/11/26 07:09:47;;;;;;;26.67;12.77;;;;;;;3.29;100.00;101780.66;5048961;28;20233;-76
2022/11/26 07:12:15;;;;;;;31.83;12.65;;;;;;;3.28;100.00;101781.56;5041673;28;20202;-73
2022/11/26 07:14:42;;;;;;;26.05;12.68;;;;;;;3.32;100.00;101788.66;5043522;28;20197;-73
2022/11/26 07:17:09;;;;;;;36.85;19.38;;;;;;;3.29;100.00;101786.88;5058192;28;20670;-74
2022/11/26 07:19:37;;;;;;;25.50;13.65;;;;;;;3.32;100.00;101801.97;5050727;28;20194;-74
2022/11/26 07:22:03;;;;;;;25.55;14.10;;;;;;;3.48;100.00;101801.22;5036683;28;20209;-74
2022/11/26 07:24:30;;;;;;;25.30;11.98;;;;;;;3.54;100.00;101805.66;5028075;28;20286;-75
2022/11/26 07:26:57;;;;;;;25.55;12.20;;;;;;;3.62;100.00;101803.97;5021744;28;20236;-76
2022/11/26 07:29:23;;;;;;;24.33;12.73;;;;;;;3.69;100.00;101804.88;5047742;28;20198;-75
2022/11/26 07:31:50;;;;;;;31.75;12.75;;;;;;;3.86;100.00;101805.84;5045547;28;20197;-78
2022/11/26 07:34:16;;;;;;;33.63;15.23;;;;;;;4.05;100.00;101817.50;5037640;28;20222;-77
2022/11/26 07:36:44;;;;;;;23.65;13.25;;;;;;;4.30;100.00;101820.25;5039130;28;20306;-76
2022/11/26 07:39:11;;;;;;;26.00;14.05;;;;;;;4.57;100.00;101819.44;5044164;28;20551;-74
2022/11/26 07:41:38;;;;;;;30.60;14.07;;;;;;;4.88;100.00;101823.00;5045546;28;20626;-73
2022/11/26 07:44:05;;;;;;;31.83;14.57;;;;;;;4.96;100.00;101821.25;5038276;28;20294;-73
2022/11/26 07:46:32;;;;;;;31.00;14.35;;;;;;;5.35;100.00;101818.56;5038225;28;20767;-73
2022/11/26 07:48:58;;;;;;;26.95;15.65;;;;;;;5.62;100.00;101826.53;5038028;28;20302;-73
2022/11/26 07:51:27;;;;;;;28.77;15.23;;;;;;;5.69;100.00;101827.41;5023498;28;20266;-73
2022/11/26 07:53:57;;;;;;;23.95;14.57;;;;;;;6.03;100.00;101821.97;5032258;28;20238;-75
2022/11/26 07:56:24;;;;;;;31.65;14.00;;;;;;;6.53;100.00;101822.63;5046103;28;20196;-73
2022/11/26 07:58:51;;;;;;;22.65;12.13;;;;;;;6.65;100.00;101830.59;5054844;28;20220;-73
2022/11/26 08:01:21;;;;;;;23.67;12.82;;;;;;;6.49;100.00;101827.13;5049617;28;20721;-74
2022/11/26 08:03:49;;;;;;;20.67;12.77;;;;;;;6.81;100.00;101829.59;5050198;28;20225;-76
2022/11/26 08:06:18;;;;;;;20.30;12.52;;;;;;;7.63;100.00;101832.44;5045585;28;20207;-72
2022/11/26 08:08:44;;;;;;;17.23;10.52;;;;;;;7.59;100.00;101830.69;5032293;28;20245;-74
2022/11/26 08:11:17;;;;;;;16.17;9.50;;;;;;;7.91;100.00;101840.19;5036287;28;20286;-74
2022/11/26 08:13:45;;;;;;;12.65;8.48;;;;;;;8.23;100.00;101842.50;5039896;28;20628;-74
2022/11/26 08:16:12;;;;;;;13.02;8.38;;;;;;;8.78;100.00;101843.56;5052357;28;20209;-74
2022/11/26 08:18:39;;;;;;;13.93;7.72;;;;;;;8.96;100.00;101845.97;5056295;28;20727;-74
2022/11/26 08:21:06;;;;;;;13.27;8.15;;;;;;;8.77;100.00;101842.69;5056722;28;20225;-73
2022/11/26 08:23:33;;;;;;;14.90;7.68;;;;;;;9.02;100.00;101846.78;5055870;28;20197;-74
2022/11/26 08:26:05;;;;;;;12.48;7.40;;;;;;;9.29;100.00;101843.63;5037099;28;20204;-73
2022/11/26 08:28:33;;;;;;;12.50;7.15;;;;;;;9.02;100.00;101830.66;5037376;28;20222;-73
2022/11/26 08:31:04;;;;;;;11.45;8.10;;;;;;;9.87;100.00;101838.09;5032549;28;20688;-74
2022/11/26 08:33:31;;;;;;;13.15;7.75;;;;;;;10.59;100.00;101836.63;5027144;28;20281;-73
2022/11/26 08:35:57;;;;;;;12.48;7.35;;;;;;;10.68;100.00;101833.72;5034660;28;20281;-73
2022/11/26 08:38:24;;;;;;;12.07;6.05;;;;;;;11.62;100.00;101834.97;5041443;28;20227;-73
2022/11/26 08:40:53;;;;;;;8.43;7.15;;;;;;;11.52;100.00;101835.25;5032311;28;20231;-76
2022/11/26 08:43:19;;;;;;;13.38;7.70;;;;;;;11.48;100.00;101831.75;5044167;28;20193;-74
2022/11/26 08:45:53;;;;;;;11.00;6.85;;;;;;;10.90;100.00;101830.50;5032003;28;20231;-75
2022/11/26 08:48:20;;;;;;;11.68;7.07;;;;;;;10.95;100.00;101834.88;5043500;28;20221;-74
2022/11/26 08:50:47;;;;;;;14.07;7.15;;;;;;;10.89;100.00;101836.84;5041081;28;20288;-75
2022/11/26 08:53:14;;;;;;;8.05;6.47;;;;;;;11.61;100.00;101830.50;5024322;28;20277;-75
2022/11/26 08:55:40;;;;;;;14.00;6.90;;;;;;;12.25;100.00;101835.91;5020433;28;20205;-73
2022/11/26 08:58:07;;;;;;;9.07;6.47;;;;;;;12.39;100.00;101849.03;5053780;28;20231;-74
2022/11/26 09:00:33;;;;;;;12.10;7.53;;;;;;;12.31;100.00;101848.38;5060143;28;20221;-75
2022/11/26 09:03:01;;;;;;;11.48;6.72;;;;;;;11.78;100.00;101845.34;5043114;28;20224;-75
2022/11/26 09:05:28;;;;;;;10.85;7.40;;;;;;;11.71;100.00;101858.09;5040172;28;20228;-74
2022/11/26 09:07:55;;;;;;;9.73;7.15;;;;;;;11.71;100.00;101863.50;5044545;28;20877;-74
2022/11/26 09:10:21;;;;;;;9.90;6.30;;;;;;;11.84;100.00;101864.06;5047302;28;20596;-75
2022/11/26 09:12:48;;;;;;;10.95;6.18;;;;;;;11.83;100.00;101865.91;5022076;28;20235;-73
2022/11/26 09:15:14;;;;;;;10.73;6.60;;;;;;;12.08;100.00;101866.13;5041394;28;20217;-74
2022/11/26 09:17:41;;;;;;;11.63;6.70;;;;;;;11.96;100.00;101870.97;5046621;28;20788;-75
2022/11/26 09:20:11;;;;;;;15.90;7.03;;;;;;;11.59;100.00;101877.34;5038825;28;20305;-75
2022/11/26 09:22:37;;;;;;;11.80;7.00;;;;;;;11.23;100.00;101882.75;5037889;28;20233;-73
2022/11/26 09:25:04;;;;;;;10.75;7.15;;;;;;;11.76;100.00;101884.97;5047326;28;20562;-73
2022/11/26 09:27:31;;;;;;;11.25;7.35;;;;;;;11.32;100.00;101884.31;5049967;28;20260;-75
2022/11/26 09:29:58;;;;;;;11.98;8.38;;;;;;;11.62;100.00;101882.66;5050268;28;20202;-74
2022/11/26 09:32:24;;;;;;;10.23;7.35;;;;;;;12.10;100.00;101879.59;5051930;28;20221;-75
2022/11/26 09:34:51;;;;;;;10.18;7.70;;;;;;;11.95;100.00;101880.00;5049411;28;20220;-73
2022/11/26 09:37:19;;;;;;;13.27;7.70;;;;;;;12.17;100.00;101883.00;5050195;28;20253;-74
2022/11/26 09:39:46;;;;;;;10.30;7.72;;;;;;;12.65;100.00;101886.06;5049042;28;20210;-75
2022/11/26 09:42:21;;;;;;;8.75;7.63;;;;;;;12.72;100.00;101886.78;5049127;28;20261;-75
2022/11/26 09:45:02;;;;;;;15.60;11.43;;;;;;;13.51;100.00;101890.56;5048982;28;20210;-74
2022/11/26 09:47:37;;;;;;;9.13;7.70;;;;;;;13.96;100.00;101890.78;5049003;28;20221;-73
2022/11/26 09:50:19;;;;;;;9.77;7.15;;;;;;;15.12;99.48;101892.72;5044767;28;20173;-74
2022/11/26 09:52:53;;;;;;;12.23;7.28;;;;;;;14.04;99.62;101889.63;5040514;28;20205;-75
2022/11/26 09:55:23;;;;;;;13.93;7.50;;;;;;;13.74;100.00;101889.78;5023244;28;20671;-77
2022/11/26 09:57:58;;;;;;;10.30;6.55;;;;;;;13.06;100.00;101892.00;5019944;28;20222;-75
2022/11/26 10:00:27;;;;;;;9.85;7.53;;;;;;;12.64;100.00;101887.00;5021610;28;20193;-75
2022/11/26 10:02:55;;;;;;;11.00;6.90;;;;;;;12.61;100.00;101876.28;5020357;28;20195;-75
2022/11/26 10:05:23;;;;;;;16.23;8.15;;;;;;;12.53;100.00;101875.66;5023408;28;20183;-76
2022/11/26 10:08:05;;;;;;;8.75;6.15;;;;;;;11.87;100.00;101877.47;5035222;28;20657;-75
2022/11/26 10:10:42;;;;;;;11.07;6.78;;;;;;;13.02;100.00;101865.97;5047657;28;20721;-73
2022/11/26 10:13:20;;;;;;;9.90;5.85;;;;;;;13.41;100.00;101868.38;5044869;28;20196;-77
2022/11/26 10:15:58;;;;;;;8.35;6.57;;;;;;;13.23;100.00;101874.31;5045237;28;20223;-76
2022/11/26 10:18:33;;;;;;;28.73;20.80;;;;;;;12.97;100.00;101878.78;5021523;28;20325;-71
2022/11/26 10:21:14;;;;;;;17.17;11.77;;;;;;;12.95;100.00;101875.22;5024047;28;20312;-74
2022/11/26 10:23:45;;;;;;;9.95;6.60;;;;;;;12.67;100.00;101875.22;5026045;28;20202;-74
2022/11/26 10:26:16;;;;;;;11.13;6.13;;;;;;;12.53;100.00;101878.34;5050709;28;20232;-75
2022/11/26 10:28:45;;;;;;;9.98;6.47;;;;;;;12.65;100.00;101882.50;5056206;28;20220;-72
2022/11/26 10:31:18;;;;;;;8.98;5.90;;;;;;;12.41;100.00;101871.47;5043148;28;20266;-75
2022/11/26 10:33:52;;;;;;;10.98;6.35;;;;;;;12.04;100.00;101879.75;5054279;28;20225;-72
2022/11/26 10:36:24;;;;;;;10.52;6.32;;;;;;;12.49;100.00;101871.25;5052209;28;20201;-73
2022/11/26 10:38:54;;;;;;;7.88;5.60;;;;;;;12.64;100.00;101869.88;5054161;28;20252;-75
2022/11/26 10:41:22;;;;;;;10.68;6.03;;;;;;;12.95;100.00;101872.53;5074121;28;20210;-74
2022/11/26 10:43:49;;;;;;;13.55;6.22;;;;;;;13.11;100.00;101872.91;5066694;28;20228;-76
2022/11/26 10:46:31;;;;;;;13.88;6.55;;;;;;;13.06;100.00;101878.47;5052004;28;20711;-74
2022/11/26 10:49:18;;;;;;;10.20;6.32;;;;;;;13.65;100.00;101868.44;5046791;28;20294;-73
2022/11/26 10:51:48;;;;;;;12.65;6.10;;;;;;;13.47;100.00;101870.84;5039060;28;20274;-74
2022/11/26 10:54:26;;;;;;;8.00;5.70;;;;;;;12.97;100.00;101867.06;5025098;28;20294;-73
2022/11/26 10:56:53;;;;;;;10.13;6.03;;;;;;;13.47;100.00;101873.53;5020810;28;20258;-75
2022/11/26 10:59:25;;;;;;;11.40;5.65;;;;;;;13.56;100.00;101875.06;5026478;28;20749;-73
2022/11/26 11:01:52;;;;;;;9.90;6.68;;;;;;;13.48;100.00;101874.44;5029208;28;20261;-77
2022/11/26 11:04:26;;;;;;;9.82;5.90;;;;;;;13.62;100.00;101877.56;5030684;28;20205;-74
2022/11/26 11:06:53;;;;;;;8.80;6.60;;;;;;;14.04;100.00;101866.16;5040712;28;20687;-74
2022/11/26 11:09:31;;;;;;;10.00;5.97;;;;;;;14.26;100.00;101857.22;5027386;28;20204;-74
2022/11/26 11:12:20;;;;;;;12.40;6.13;;;;;;;14.26;100.00;101858.09;5031214;28;20191;-74
2022/11/26 11:14:48;;;;;;;8.93;5.47;;;;;;;14.55;100.00;101866.97;5022093;28;20187;-77
2022/11/26 11:17:34;;;;;;;9.05;5.57;;;;;;;14.23;100.00;101863.63;5041745;28;20249;-76
2022/11/26 11:20:22;;;;;;;10.65;5.50;;;;;;;14.64;96.97;101869.31;5024510;28;20757;-74
2022/11/26 11:22:57;;;;;;;9.50;5.55;;;;;;;13.92;100.00;101866.56;5019613;28;20237;-76